»·PEaware :: DAL1642 KSEA-KSFO

DAL1642 :: KSEA-KSFO

FLIGHT INFORMATION

Flight Status: Arrived
Operator:
Delta Air Lines
More flights by this operator :: More flights under this callsign
Pilot: Chris O. (17601)
Aircraft: BOEING 717-200
(B712)
More flights by this aircraft type
Origin: KSEA Seattle-Tacoma Intl
United States
Destination: KSFO San Francisco Intl
United States
More flights between these airports :: More routes between these airports
Route: +HAROB6 FEPOT CVO J589 RBG EBINY Q1 ETCHY MLBEC BDEGA3
File this flight plan on PilotEdge
Remarks: DELTA AIRLINES | BOEING 717-200 | P3DV4 | NAVIGRAPH CHARTS | 1810| SELCAL N / A | S / C N / A
Altitude:
(Current/Filed)
35,000ft
Speed:
(Current/Filed)
470kts
Departed: 30-Sep-18 10:08 AM
Arrived: 30-Sep-18 11:43 AM
Distance/Time
Traveled:
590nm/1:35
Distance/Time
To Go:
Arrived

Flight Plot

Page will automatically refresh every two minutes.

Flight plan parsing failed; only flown route is shown


Map Options




Map Legend


Flown Route
Filed Route
Departure Airport
Arrival Airport
Navaid (VOR, NDB)
Fix

Horizontal Profiles

Position Reports

Time Latitude Longitude Heading Altitude Ground
Speed
30-Sep-18 09:01 47.438098 -122.298092 48 441ft 0kts
30-Sep-18 09:02 47.438098 -122.298092 48 441ft 0kts
30-Sep-18 09:03 47.438098 -122.298092 48 441ft 0kts
30-Sep-18 09:04 47.438098 -122.298092 48 441ft 0kts
30-Sep-18 09:05 47.438098 -122.298092 48 441ft 0kts
30-Sep-18 09:06 47.438098 -122.298092 48 441ft 0kts
30-Sep-18 09:07 47.438098 -122.298092 48 441ft 0kts
30-Sep-18 09:08 47.438098 -122.298092 48 441ft 0kts
30-Sep-18 09:09 47.438098 -122.298092 48 441ft 0kts
30-Sep-18 09:10 47.438098 -122.298092 48 441ft 0kts
30-Sep-18 09:11 47.438098 -122.298092 48 441ft 0kts
30-Sep-18 09:12 47.438098 -122.298092 48 441ft 0kts
30-Sep-18 09:13 47.438098 -122.298092 48 441ft 0kts
30-Sep-18 09:14 47.438098 -122.298092 48 441ft 0kts
30-Sep-18 09:15 47.438098 -122.298092 48 441ft 0kts
30-Sep-18 09:16 47.438098 -122.298092 48 441ft 0kts
30-Sep-18 09:17 47.438098 -122.298092 48 441ft 0kts
30-Sep-18 09:18 47.438098 -122.298092 48 441ft 0kts
30-Sep-18 09:19 47.438098 -122.298092 48 441ft 0kts
30-Sep-18 09:20 47.438098 -122.298092 48 441ft 0kts
30-Sep-18 09:21 47.438098 -122.298092 48 441ft 0kts
30-Sep-18 09:22 47.438098 -122.298092 48 441ft 0kts
30-Sep-18 09:23 47.438098 -122.298092 48 441ft 0kts
30-Sep-18 09:24 47.438098 -122.298092 48 441ft 0kts
30-Sep-18 09:25 47.438098 -122.298092 48 441ft 0kts
30-Sep-18 09:26 47.438098 -122.298092 48 441ft 0kts
30-Sep-18 09:27 47.438098 -122.298092 48 441ft 0kts
30-Sep-18 09:28 47.438098 -122.298092 48 441ft 0kts
30-Sep-18 09:29 47.438098 -122.298092 48 441ft 0kts
30-Sep-18 09:30 47.438098 -122.298092 48 441ft 0kts
30-Sep-18 09:31 47.438098 -122.298092 48 441ft 0kts
30-Sep-18 09:32 47.438098 -122.298092 48 441ft 0kts
30-Sep-18 09:33 47.438098 -122.298092 48 441ft 0kts
30-Sep-18 09:34 47.438098 -122.298092 48 441ft 0kts
30-Sep-18 09:35 47.438098 -122.298092 48 441ft 0kts
30-Sep-18 09:36 47.438098 -122.298092 48 441ft 0kts
30-Sep-18 09:37 47.438098 -122.298092 48 441ft 0kts
30-Sep-18 09:38 47.438098 -122.298092 48 441ft 0kts
30-Sep-18 09:39 47.438098 -122.298092 48 441ft 0kts
30-Sep-18 09:40 47.438098 -122.298092 48 441ft 0kts
30-Sep-18 09:41 47.438098 -122.298092 48 441ft 0kts
30-Sep-18 09:42 47.438098 -122.298092 48 441ft 0kts
30-Sep-18 09:43 47.438098 -122.298092 48 441ft 0kts
30-Sep-18 09:44 47.437774 -122.298645 53 441ft 2kts
30-Sep-18 09:45 47.437579 -122.299221 71 441ft 0kts
30-Sep-18 09:46 47.437579 -122.299220 71 441ft 0kts
30-Sep-18 09:47 47.437579 -122.299219 71 441ft 0kts
30-Sep-18 09:48 47.437580 -122.299218 71 441ft 0kts
30-Sep-18 09:49 47.437598 -122.299180 54 441ft 1kts
30-Sep-18 09:50 47.437741 -122.299883 259 441ft 3kts
30-Sep-18 09:51 47.437277 -122.302840 256 441ft 11kts
30-Sep-18 09:52 47.437195 -122.304060 269 441ft 0kts
30-Sep-18 09:53 47.437195 -122.304061 269 441ft 0kts
30-Sep-18 09:54 47.437195 -122.304062 269 441ft 0kts
30-Sep-18 09:55 47.437195 -122.304067 269 441ft 0kts
30-Sep-18 09:56 47.437202 -122.304826 270 441ft 0kts
30-Sep-18 09:57 47.438285 -122.306377 359 441ft 10kts
30-Sep-18 09:58 47.441497 -122.306350 0 441ft 10kts
30-Sep-18 09:59 47.445457 -122.306318 359 441ft 19kts
30-Sep-18 10:00 47.450823 -122.306262 0 441ft 16kts
30-Sep-18 10:01 47.455417 -122.306214 0 441ft 16kts
30-Sep-18 10:02 47.459787 -122.306182 359 441ft 16kts
30-Sep-18 10:03 47.463622 -122.306392 326 441ft 0kts
30-Sep-18 10:04 47.463622 -122.306393 326 441ft 0kts
30-Sep-18 10:05 47.463623 -122.306394 326 441ft 0kts
30-Sep-18 10:06 47.463624 -122.306394 326 441ft 0kts
30-Sep-18 10:07 47.463624 -122.306395 326 441ft 0kts
30-Sep-18 10:08 47.463625 -122.306395 326 441ft 0kts
30-Sep-18 10:09 47.463709 -122.307330 261 441ft 19kts
30-Sep-18 10:10 47.461007 -122.311039 180 441ft 54kts
30-Sep-18 10:11 47.421069 -122.310828 177 1980ft 164kts
30-Sep-18 10:12 47.372637 -122.307934 175 4091ft 193kts
30-Sep-18 10:13 47.317349 -122.306364 188 6679ft 227kts
30-Sep-18 10:14 47.280847 -122.385843 282 9226ft 286kts
30-Sep-18 10:15 47.308692 -122.505239 271 10724ft 355kts
30-Sep-18 10:16 47.312906 -122.660174 270 12402ft 389kts
30-Sep-18 10:17 47.302666 -122.820182 249 14492ft 401kts
30-Sep-18 10:18 47.261069 -122.974471 248 16561ft 410kts
30-Sep-18 10:19 47.187502 -123.102959 217 18263ft 426kts
30-Sep-18 10:20 47.088671 -123.203112 205 19760ft 441kts
30-Sep-18 10:21 46.964088 -123.222596 182 21039ft 460kts
30-Sep-18 10:22 46.834604 -123.226330 183 22200ft 472kts
30-Sep-18 10:23 46.701241 -123.230332 183 23248ft 483kts
30-Sep-18 10:24 46.565445 -123.234388 183 24188ft 493kts
30-Sep-18 10:25 46.427835 -123.238471 183 25360ft 495kts
30-Sep-18 10:26 46.289891 -123.242548 183 26620ft 496kts
30-Sep-18 10:27 46.151445 -123.246620 183 27933ft 497kts
30-Sep-18 10:28 46.013282 -123.250662 183 29290ft 497kts
30-Sep-18 10:29 45.874290 -123.254709 183 30593ft 498kts
30-Sep-18 10:30 45.736555 -123.258701 183 32112ft 494kts
30-Sep-18 10:31 45.599858 -123.262640 183 33618ft 488kts
30-Sep-18 10:32 45.464106 -123.266538 183 34874ft 485kts
30-Sep-18 10:33 45.330467 -123.270358 183 34965ft 480kts
30-Sep-18 10:34 45.196921 -123.274155 183 34966ft 481kts
30-Sep-18 10:35 45.063235 -123.277936 183 34965ft 480kts
30-Sep-18 10:36 44.929202 -123.281711 183 34965ft 481kts
30-Sep-18 10:37 44.795500 -123.285457 183 34970ft 480kts
30-Sep-18 10:38 44.661820 -123.289187 183 34977ft 480kts
30-Sep-18 10:39 44.528444 -123.292891 183 34984ft 479kts
30-Sep-18 10:40 44.394771 -123.298436 183 34985ft 480kts
30-Sep-18 10:41 44.261289 -123.304466 183 34979ft 480kts
30-Sep-18 10:42 44.127796 -123.310464 183 34976ft 480kts
30-Sep-18 10:43 43.994441 -123.316430 183 34976ft 479kts
30-Sep-18 10:44 43.861634 -123.322344 183 34975ft 477kts
30-Sep-18 10:45 43.728655 -123.328240 183 34975ft 477kts
30-Sep-18 10:46 43.595714 -123.334108 183 34978ft 477kts
30-Sep-18 10:47 43.462946 -123.339942 183 34982ft 477kts
30-Sep-18 10:48 43.330522 -123.345737 183 34985ft 477kts
30-Sep-18 10:49 43.198119 -123.351335 181 34985ft 476kts
30-Sep-18 10:50 43.065636 -123.335065 175 34988ft 477kts
30-Sep-18 10:51 42.933573 -123.315767 175 34999ft 477kts
30-Sep-18 10:52 42.802004 -123.296623 175 35012ft 476kts
30-Sep-18 10:53 42.670667 -123.277596 175 35020ft 475kts
30-Sep-18 10:54 42.539033 -123.258606 175 35024ft 473kts
30-Sep-18 10:55 42.409520 -123.247403 180 35019ft 473kts
30-Sep-18 10:56 42.277802 -123.242699 179 35015ft 472kts
30-Sep-18 10:57 42.146595 -123.237875 179 35014ft 472kts
30-Sep-18 10:58 42.015133 -123.233062 179 35013ft 472kts
30-Sep-18 10:59 41.885247 -123.228326 180 35013ft 466kts
30-Sep-18 11:00 41.755243 -123.223605 180 35014ft 466kts
30-Sep-18 11:01 41.625848 -123.218930 180 35031ft 465kts
30-Sep-18 11:02 41.496555 -123.214437 180 35021ft 464kts
30-Sep-18 11:03 41.367475 -123.209983 181 35020ft 463kts
30-Sep-18 11:04 41.238959 -123.206431 181 35010ft 461kts
30-Sep-18 11:05 41.110695 -123.203186 181 35014ft 460kts
30-Sep-18 11:06 40.982524 -123.199954 181 35014ft 459kts
30-Sep-18 11:07 40.855077 -123.196754 182 35011ft 457kts
30-Sep-18 11:08 40.728040 -123.193576 182 35009ft 456kts
30-Sep-18 11:09 40.601285 -123.190417 182 35008ft 455kts
30-Sep-18 11:10 40.474963 -123.187281 182 35014ft 453kts
30-Sep-18 11:11 40.349113 -123.184168 182 35013ft 453kts
30-Sep-18 11:12 40.222990 -123.181061 182 35014ft 452kts
30-Sep-18 11:13 40.097484 -123.177981 182 35012ft 452kts
30-Sep-18 11:14 39.971877 -123.174866 183 35015ft 447kts
30-Sep-18 11:15 39.848296 -123.169456 182 35014ft 446kts
30-Sep-18 11:16 39.724148 -123.163698 182 35015ft 445kts
30-Sep-18 11:17 39.600089 -123.157974 182 35015ft 445kts
30-Sep-18 11:18 39.476663 -123.152296 182 35006ft 443kts
30-Sep-18 11:19 39.352982 -123.146632 182 35006ft 443kts
30-Sep-18 11:20 39.229910 -123.141014 183 35006ft 442kts
30-Sep-18 11:21 39.107909 -123.133772 175 33501ft 442kts
30-Sep-18 11:22 38.996342 -123.057720 152 30607ft 465kts
30-Sep-18 11:23 38.886585 -122.969446 157 27875ft 464kts
30-Sep-18 11:24 38.783288 -122.931642 171 26880ft 465kts
30-Sep-18 11:25 38.656631 -122.894432 171 25542ft 469kts
30-Sep-18 11:26 38.514594 -122.852509 171 24020ft 412kts
30-Sep-18 11:27 38.422909 -122.825631 171 23105ft 405kts
30-Sep-18 11:28 38.299282 -122.789370 171 19974ft 374kts
30-Sep-18 11:29 38.216662 -122.765242 170 17481ft 359kts
30-Sep-18 11:30 38.120816 -122.737391 170 16024ft 353kts
30-Sep-18 11:31 38.025637 -122.709790 170 15389ft 349kts
30-Sep-18 11:32 37.931668 -122.682609 170 14083ft 341kts
30-Sep-18 11:33 37.850866 -122.622154 142 12690ft 344kts
30-Sep-18 11:34 37.778377 -122.545026 142 11212ft 333kts
30-Sep-18 11:35 37.762627 -122.444634 61 9951ft 304kts
30-Sep-18 11:36 37.812142 -122.359389 53 8649ft 296kts
30-Sep-18 11:37 37.848789 -122.271653 102 7868ft 281kts
30-Sep-18 11:38 37.799755 -122.200542 143 7228ft 273kts
30-Sep-18 11:39 37.727708 -122.178172 173 5947ft 270kts
30-Sep-18 11:40 37.653565 -122.167811 173 4800ft 264kts
30-Sep-18 11:41 37.583163 -122.175426 209 4173ft 261kts
30-Sep-18 11:42 37.562515 -122.243599 285 3414ft 213kts
30-Sep-18 11:43 37.590234 -122.303892 285 1438ft 164kts
30-Sep-18 11:44 37.609095 -122.352119 299 197ft 154kts
30-Sep-18 11:45 37.621672 -122.382028 297 21ft 13kts
30-Sep-18 11:46 37.621236 -122.383200 200 21ft 0kts
30-Sep-18 11:47 37.620290 -122.383332 141 21ft 3kts
30-Sep-18 11:48 37.618445 -122.379737 151 21ft 17kts
30-Sep-18 11:49 37.614734 -122.380901 208 21ft 12kts
30-Sep-18 11:50 37.614093 -122.382883 24 21ft 8kts
30-Sep-18 11:51 37.614363 -122.382719 25 21ft 0kts

Navigation Log

Ident Type
Flight plan parsing failed, navigation log unavailable